sensor_id;sensor_type;location;lat;lon;timestamp;pressure;altitude;pressure_sealevel;temperature;humidity
37904;BME280;23738;50.422;18.758;2022-12-10T00:01:30;97184.03;;;2.00;85.12
37904;BME280;23738;50.422;18.758;2022-12-10T00:03:57;97186.47;;;2.01;85.15
37904;BME280;23738;50.422;18.758;2022-12-10T00:06:28;97184.99;;;2.03;85.06
37904;BME280;23738;50.422;18.758;2022-12-10T00:08:55;97183.02;;;2.05;85.14
37904;BME280;23738;50.422;18.758;2022-12-10T00:11:23;97178.63;;;2.05;85.22
37904;BME280;23738;50.422;18.758;2022-12-10T00:13:50;97178.31;;;2.04;85.14
37904;BME280;23738;50.422;18.758;2022-12-10T00:16:18;97177.52;;;2.00;85.08
37904;BME280;23738;50.422;18.758;2022-12-10T00:18:45;97182.73;;;2.00;85.13
37904;BME280;23738;50.422;18.758;2022-12-10T00:21:17;97185.66;;;2.01;85.11
37904;BME280;23738;50.422;18.758;2022-12-10T00:23:44;97189.71;;;2.03;85.12
37904;BME280;23738;50.422;18.758;2022-12-10T00:26:13;97195.09;;;2.02;85.12
37904;BME280;23738;50.422;18.758;2022-12-10T00:28:42;97193.67;;;1.99;85.07
37904;BME280;23738;50.422;18.758;2022-12-10T00:31:16;97191.73;;;1.97;85.25
37904;BME280;23738;50.422;18.758;2022-12-10T00:33:42;97186.84;;;1.98;85.27
37904;BME280;23738;50.422;18.758;2022-12-10T00:36:11;97187.33;;;1.98;85.17
37904;BME280;23738;50.422;18.758;2022-12-10T00:38:40;97181.63;;;1.98;85.07
37904;BME280;23738;50.422;18.758;2022-12-10T00:41:07;97185.86;;;1.99;85.24
37904;BME280;23738;50.422;18.758;2022-12-10T00:43:34;97192.66;;;2.00;85.24
37904;BME280;23738;50.422;18.758;2022-12-10T00:46:00;97193.96;;;2.00;85.31
37904;BME280;23738;50.422;18.758;2022-12-10T00:48:26;97192.38;;;1.99;85.28
37904;BME280;23738;50.422;18.758;2022-12-10T00:50:57;97195.31;;;1.96;85.18
37904;BME280;23738;50.422;18.758;2022-12-10T00:53:25;97194.36;;;1.93;85.14
37904;BME280;23738;50.422;18.758;2022-12-10T00:55:51;97200.53;;;1.96;85.37
37904;BME280;23738;50.422;18.758;2022-12-10T00:58:18;97202.59;;;2.01;85.33
37904;BME280;23738;50.422;18.758;2022-12-10T01:00:44;97202.59;;;2.01;85.21
37904;BME280;23738;50.422;18.758;2022-12-10T01:03:09;97204.11;;;1.95;85.25
37904;BME280;23738;50.422;18.758;2022-12-10T01:05:35;97205.09;;;1.94;85.30
37904;BME280;23738;50.422;18.758;2022-12-10T01:08:01;97207.58;;;1.91;85.25
37904;BME280;23738;50.422;18.758;2022-12-10T01:10:27;97211.34;;;1.89;85.17
37904;BME280;23738;50.422;18.758;2022-12-10T01:12:53;97207.27;;;1.90;85.36
37904;BME280;23738;50.422;18.758;2022-12-10T01:15:18;97208.19;;;1.93;85.26
37904;BME280;23738;50.422;18.758;2022-12-10T01:17:44;97205.47;;;1.91;85.29
37904;BME280;23738;50.422;18.758;2022-12-10T01:20:10;97198.27;;;1.93;85.38
37904;BME280;23738;50.422;18.758;2022-12-10T01:22:37;97203.53;;;1.89;85.29
37904;BME280;23738;50.422;18.758;2022-12-10T01:25:03;97209.89;;;1.86;85.48
37904;BME280;23738;50.422;18.758;2022-12-10T01:27:29;97211.83;;;1.88;85.44
37904;BME280;23738;50.422;18.758;2022-12-10T01:29:55;97210.36;;;1.90;85.38
37904;BME280;23738;50.422;18.758;2022-12-10T01:32:21;97211.66;;;1.90;85.38
37904;BME280;23738;50.422;18.758;2022-12-10T01:34:47;97207.27;;;1.90;85.39
37904;BME280;23738;50.422;18.758;2022-12-10T01:37:13;97210.84;;;1.89;85.38
37904;BME280;23738;50.422;18.758;2022-12-10T01:39:38;97214.28;;;1.86;85.33
37904;BME280;23738;50.422;18.758;2022-12-10T01:42:05;97218.41;;;1.80;85.31
37904;BME280;23738;50.422;18.758;2022-12-10T01:45:08;97203.30;;;1.76;85.25
37904;BME280;23738;50.422;18.758;2022-12-10T01:47:08;97207.52;;;1.77;85.33
37904;BME280;23738;50.422;18.758;2022-12-10T01:49:38;97209.47;;;1.79;85.56
37904;BME280;23738;50.422;18.758;2022-12-10T01:52:08;97208.44;;;1.84;85.65
37904;BME280;23738;50.422;18.758;2022-12-10T01:54:38;97202.73;;;1.84;85.67
37904;BME280;23738;50.422;18.758;2022-12-10T01:57:12;97208.59;;;1.86;85.71
37904;BME280;23738;50.422;18.758;2022-12-10T01:59:41;97212.66;;;1.85;85.66
37904;BME280;23738;50.422;18.758;2022-12-10T02:02:22;97214.02;;;1.81;85.45
37904;BME280;23738;50.422;18.758;2022-12-10T02:15:51;97222.76;;;1.84;85.68
37904;BME280;23738;50.422;18.758;2022-12-10T02:18:27;97224.45;;;1.77;85.57
37904;BME280;23738;50.422;18.758;2022-12-10T02:20:58;97236.16;;;1.77;85.63
37904;BME280;23738;50.422;18.758;2022-12-10T02:23:35;97246.56;;;1.81;85.67
37904;BME280;23738;50.422;18.758;2022-12-10T02:29:06;97248.51;;;1.83;85.69
37904;BME280;23738;50.422;18.758;2022-12-10T02:31:35;97245.41;;;1.83;85.70
37904;BME280;23738;50.422;18.758;2022-12-10T02:34:04;97244.77;;;1.81;85.76
37904;BME280;23738;50.422;18.758;2022-12-10T02:36:34;97247.23;;;1.79;85.74
37904;BME280;23738;50.422;18.758;2022-12-10T02:39:03;97242.19;;;1.77;85.75
37904;BME280;23738;50.422;18.758;2022-12-10T02:41:35;97243.91;;;1.85;85.89
37904;BME280;23738;50.422;18.758;2022-12-10T02:44:05;97231.69;;;1.89;85.82
37904;BME280;23738;50.422;18.758;2022-12-10T02:46:34;97238.36;;;1.88;85.86
37904;BME280;23738;50.422;18.758;2022-12-10T02:49:04;97234.29;;;1.89;85.95
37904;BME280;23738;50.422;18.758;2022-12-10T02:51:31;97234.14;;;1.87;85.75
37904;BME280;23738;50.422;18.758;2022-12-10T02:54:02;97234.03;;;1.80;85.68
37904;BME280;23738;50.422;18.758;2022-12-10T02:56:52;97224.77;;;1.78;85.71
37904;BME280;23738;50.422;18.758;2022-12-10T02:59:27;97224.59;;;1.79;85.76
37904;BME280;23738;50.422;18.758;2022-12-10T03:02:10;97221.19;;;1.79;85.75
37904;BME280;23738;50.422;18.758;2022-12-10T03:04:56;97223.45;;;1.82;85.87
37904;BME280;23738;50.422;18.758;2022-12-10T03:07:37;97230.55;;;1.88;86.18
37904;BME280;23738;50.422;18.758;2022-12-10T03:12:59;97232.39;;;1.83;85.92
37904;BME280;23738;50.422;18.758;2022-12-10T03:15:28;97251.11;;;1.83;85.93
37904;BME280;23738;50.422;18.758;2022-12-10T03:17:57;97262.68;;;1.80;85.67
37904;BME280;23738;50.422;18.758;2022-12-10T03:20:26;97271.95;;;1.79;85.69
37904;BME280;23738;50.422;18.758;2022-12-10T03:22:53;97268.33;;;1.84;86.02
37904;BME280;23738;50.422;18.758;2022-12-10T03:25:22;97266.03;;;1.89;86.08
37904;BME280;23738;50.422;18.758;2022-12-10T03:27:51;97262.78;;;1.87;85.92
37904;BME280;23738;50.422;18.758;2022-12-10T03:30:19;97262.63;;;1.84;85.98
37904;BME280;23738;50.422;18.758;2022-12-10T03:32:46;97260.67;;;1.86;86.07
37904;BME280;23738;50.422;18.758;2022-12-10T03:35:12;97260.82;;;1.89;85.93
37904;BME280;23738;50.422;18.758;2022-12-10T03:37:39;97263.42;;;1.89;85.90
37904;BME280;23738;50.422;18.758;2022-12-10T03:40:06;97267.83;;;1.88;85.92
37904;BME280;23738;50.422;18.758;2022-12-10T03:42:35;97279.87;;;1.85;85.77
37904;BME280;23738;50.422;18.758;2022-12-10T03:45:02;97286.60;;;1.80;85.69
37904;BME280;23738;50.422;18.758;2022-12-10T03:47:28;97285.36;;;1.72;85.77
37904;BME280;23738;50.422;18.758;2022-12-10T03:49:53;97277.88;;;1.73;85.96
37904;BME280;23738;50.422;18.758;2022-12-10T03:52:19;97286.94;;;1.77;85.97
37904;BME280;23738;50.422;18.758;2022-12-10T03:54:45;97289.03;;;1.81;86.07
37904;BME280;23738;50.422;18.758;2022-12-10T03:57:11;97282.80;;;1.86;86.24
37904;BME280;23738;50.422;18.758;2022-12-10T03:59:37;97279.69;;;1.91;86.33
37904;BME280;23738;50.422;18.758;2022-12-10T04:02:03;97284.26;;;1.89;86.17
37904;BME280;23738;50.422;18.758;2022-12-10T04:04:29;97280.03;;;1.88;86.20
37904;BME280;23738;50.422;18.758;2022-12-10T04:06:55;97289.80;;;1.86;86.03
37904;BME280;23738;50.422;18.758;2022-12-10T04:09:21;97292.90;;;1.85;85.99
37904;BME280;23738;50.422;18.758;2022-12-10T04:11:46;97294.73;;;1.81;85.82
37904;BME280;23738;50.422;18.758;2022-12-10T04:14:13;97291.16;;;1.78;86.02
37904;BME280;23738;50.422;18.758;2022-12-10T04:16:58;97288.88;;;1.79;86.07
37904;BME280;23738;50.422;18.758;2022-12-10T04:19:25;97291.98;;;1.78;86.17
37904;BME280;23738;50.422;18.758;2022-12-10T04:21:51;97281.61;;;1.74;86.08
37904;BME280;23738;50.422;18.758;2022-12-10T04:24:36;97289.27;;;1.72;85.94
37904;BME280;23738;50.422;18.758;2022-12-10T04:27:32;97294.80;;;1.73;86.06
37904;BME280;23738;50.422;18.758;2022-12-10T04:29:58;97296.74;;;1.75;86.05
37904;BME280;23738;50.422;18.758;2022-12-10T04:32:26;97298.05;;;1.75;86.16
37904;BME280;23738;50.422;18.758;2022-12-10T04:34:53;97299.64;;;1.76;86.21
37904;BME280;23738;50.422;18.758;2022-12-10T04:37:20;97302.07;;;1.77;86.35
37904;BME280;23738;50.422;18.758;2022-12-10T04:39:47;97297.72;;;1.74;86.07
37904;BME280;23738;50.422;18.758;2022-12-10T04:42:14;97303.75;;;1.70;86.12
37904;BME280;23738;50.422;18.758;2022-12-10T04:44:40;97306.52;;;1.69;86.08
37904;BME280;23738;50.422;18.758;2022-12-10T04:47:07;97307.02;;;1.68;86.00
37904;BME280;23738;50.422;18.758;2022-12-10T04:49:34;97319.70;;;1.71;86.14
37904;BME280;23738;50.422;18.758;2022-12-10T04:52:01;97322.14;;;1.69;86.09
37904;BME280;23738;50.422;18.758;2022-12-10T04:54:27;97326.25;;;1.67;86.17
37904;BME280;23738;50.422;18.758;2022-12-10T04:56:54;97328.66;;;1.69;86.34
37904;BME280;23738;50.422;18.758;2022-12-10T04:59:19;97338.12;;;1.66;86.07
37904;BME280;23738;50.422;18.758;2022-12-10T05:01:45;97334.71;;;1.65;86.14
37904;BME280;23738;50.422;18.758;2022-12-10T05:04:13;97338.09;;;1.70;86.23
37904;BME280;23738;50.422;18.758;2022-12-10T05:06:40;97345.24;;;1.72;86.21
37904;BME280;23738;50.422;18.758;2022-12-10T05:09:07;97343.77;;;1.73;86.27
37904;BME280;23738;50.422;18.758;2022-12-10T05:11:34;97339.38;;;1.74;86.42
37904;BME280;23738;50.422;18.758;2022-12-10T05:14:00;97333.48;;;1.76;86.41
37904;BME280;23738;50.422;18.758;2022-12-10T05:16:28;97333.19;;;1.75;86.35
37904;BME280;23738;50.422;18.758;2022-12-10T05:18:56;97344.55;;;1.78;86.42
37904;BME280;23738;50.422;18.758;2022-12-10T05:21:24;97341.44;;;1.82;86.42
37904;BME280;23738;50.422;18.758;2022-12-10T05:23:53;97341.12;;;1.81;86.20
37904;BME280;23738;50.422;18.758;2022-12-10T05:26:21;97348.62;;;1.76;86.32
37904;BME280;23738;50.422;18.758;2022-12-10T05:28:53;97350.40;;;1.80;86.58
37904;BME280;23738;50.422;18.758;2022-12-10T05:31:26;97355.93;;;1.81;86.45
37904;BME280;23738;50.422;18.758;2022-12-10T05:33:54;97358.86;;;1.78;86.32
37904;BME280;23738;50.422;18.758;2022-12-10T05:36:30;97353.17;;;1.78;86.38
37904;BME280;23738;50.422;18.758;2022-12-10T05:38:55;97354.59;;;1.85;86.61
37904;BME280;23738;50.422;18.758;2022-12-10T05:41:27;97353.77;;;1.84;86.32
37904;BME280;23738;50.422;18.758;2022-12-10T05:43:56;97350.36;;;1.84;86.44
37904;BME280;23738;50.422;18.758;2022-12-10T05:46:28;97348.61;;;1.80;86.38
37904;BME280;23738;50.422;18.758;2022-12-10T05:48:55;97348.81;;;1.75;86.18
37904;BME280;23738;50.422;18.758;2022-12-10T05:51:25;97351.75;;;1.72;86.31
37904;BME280;23738;50.422;18.758;2022-12-10T05:53:53;97356.30;;;1.74;86.35
37904;BME280;23738;50.422;18.758;2022-12-10T05:56:21;97352.52;;;1.80;86.51
37904;BME280;23738;50.422;18.758;2022-12-10T05:58:49;97361.30;;;1.83;86.44
37904;BME280;23738;50.422;18.758;2022-12-10T06:01:18;97357.08;;;1.78;86.31
37904;BME280;23738;50.422;18.758;2022-12-10T06:03:46;97356.43;;;1.76;86.31
37904;BME280;23738;50.422;18.758;2022-12-10T06:06:13;97342.48;;;1.69;86.22
37904;BME280;23738;50.422;18.758;2022-12-10T06:08:39;97333.05;;;1.68;86.38
37904;BME280;23738;50.422;18.758;2022-12-10T06:11:08;97321.20;;;1.66;86.21
37904;BME280;23738;50.422;18.758;2022-12-10T06:13:36;97308.15;;;1.70;86.38
37904;BME280;23738;50.422;18.758;2022-12-10T06:16:06;97311.23;;;1.69;86.23
37904;BME280;23738;50.422;18.758;2022-12-10T06:18:34;97306.56;;;1.65;86.21
37904;BME280;23738;50.422;18.758;2022-12-10T06:21:05;97302.38;;;1.60;86.28
37904;BME280;23738;50.422;18.758;2022-12-10T06:23:34;97314.27;;;1.54;86.35
37904;BME280;23738;50.422;18.758;2022-12-10T06:26:09;97326.14;;;1.57;86.45
37904;BME280;23738;50.422;18.758;2022-12-10T06:28:37;97338.50;;;1.59;86.35
37904;BME280;23738;50.422;18.758;2022-12-10T06:31:04;97346.80;;;1.54;86.33
37904;BME280;23738;50.422;18.758;2022-12-10T06:33:30;97368.80;;;1.51;86.23
37904;BME280;23738;50.422;18.758;2022-12-10T06:35:56;97376.61;;;1.51;86.40
37904;BME280;23738;50.422;18.758;2022-12-10T06:38:21;97380.52;;;1.51;86.44
37904;BME280;23738;50.422;18.758;2022-12-10T06:40:47;97388.32;;;1.51;86.58
37904;BME280;23738;50.422;18.758;2022-12-10T06:43:13;97391.87;;;1.54;86.66
37904;BME280;23738;50.422;18.758;2022-12-10T06:45:40;97390.89;;;1.56;86.58
37904;BME280;23738;50.422;18.758;2022-12-10T06:48:07;97389.75;;;1.58;86.58
37904;BME280;23738;50.422;18.758;2022-12-10T06:50:33;97393.94;;;1.63;86.60
37904;BME280;23738;50.422;18.758;2022-12-10T06:53:00;97386.91;;;1.68;86.70
37904;BME280;23738;50.422;18.758;2022-12-10T06:55:26;97389.18;;;1.71;86.68
37904;BME280;23738;50.422;18.758;2022-12-10T06:57:52;97396.34;;;1.69;86.61
37904;BME280;23738;50.422;18.758;2022-12-10T07:00:19;97394.43;;;1.63;86.44
37904;BME280;23738;50.422;18.758;2022-12-10T07:02:46;97396.38;;;1.61;86.51
37904;BME280;23738;50.422;18.758;2022-12-10T07:05:12;97394.92;;;1.62;86.58
37904;BME280;23738;50.422;18.758;2022-12-10T07:07:37;97405.66;;;1.67;86.61
37904;BME280;23738;50.422;18.758;2022-12-10T07:10:04;97413.95;;;1.67;86.55
37904;BME280;23738;50.422;18.758;2022-12-10T07:12:31;97419.45;;;1.68;86.66
37904;BME280;23738;50.422;18.758;2022-12-10T07:14:56;97422.41;;;1.61;86.35
37904;BME280;23738;50.422;18.758;2022-12-10T07:17:22;97421.31;;;1.59;86.52
37904;BME280;23738;50.422;18.758;2022-12-10T07:19:48;97417.08;;;1.58;86.55
37904;BME280;23738;50.422;18.758;2022-12-10T07:22:14;97404.52;;;1.62;86.59
37904;BME280;23738;50.422;18.758;2022-12-10T07:24:39;97396.87;;;1.64;86.55
37904;BME280;23738;50.422;18.758;2022-12-10T07:27:06;97399.48;;;1.60;86.37
37904;BME280;23738;50.422;18.758;2022-12-10T07:29:33;97404.55;;;1.58;86.58
37904;BME280;23738;50.422;18.758;2022-12-10T07:31:59;97408.13;;;1.57;86.59
37904;BME280;23738;50.422;18.758;2022-12-10T07:34:26;97413.34;;;1.52;86.53
37904;BME280;23738;50.422;18.758;2022-12-10T07:36:52;97407.52;;;1.50;86.55
37904;BME280;23738;50.422;18.758;2022-12-10T07:39:18;97412.69;;;1.54;86.65
37904;BME280;23738;50.422;18.758;2022-12-10T07:41:50;97417.89;;;1.59;86.58
37904;BME280;23738;50.422;18.758;2022-12-10T07:44:23;97418.70;;;1.59;86.71
37904;BME280;23738;50.422;18.758;2022-12-10T07:46:48;97429.73;;;1.61;86.78
37904;BME280;23738;50.422;18.758;2022-12-10T07:49:15;97439.34;;;1.61;86.73
37904;BME280;23738;50.422;18.758;2022-12-10T07:51:45;97456.61;;;1.58;86.68
37904;BME280;23738;50.422;18.758;2022-12-10T07:54:12;97453.84;;;1.59;86.78
37904;BME280;23738;50.422;18.758;2022-12-10T07:56:38;97454.80;;;1.62;86.76
37904;BME280;23738;50.422;18.758;2022-12-10T07:59:04;97456.09;;;1.66;86.71
37904;BME280;23738;50.422;18.758;2022-12-10T08:01:30;97451.22;;;1.63;86.61
37904;BME280;23738;50.422;18.758;2022-12-10T08:03:56;97443.24;;;1.61;86.60
37904;BME280;23738;50.422;18.758;2022-12-10T08:06:23;97443.59;;;1.58;86.64
37904;BME280;23738;50.422;18.758;2022-12-10T08:08:50;97442.13;;;1.55;86.68
37904;BME280;23738;50.422;18.758;2022-12-10T08:11:18;97447.66;;;1.56;86.75
37904;BME280;23738;50.422;18.758;2022-12-10T08:13:46;97452.06;;;1.60;86.63
37904;BME280;23738;50.422;18.758;2022-12-10T08:16:20;97451.05;;;1.61;86.74
37904;BME280;23738;50.422;18.758;2022-12-10T08:18:54;97445.19;;;1.67;86.97
37904;BME280;23738;50.422;18.758;2022-12-10T08:21:22;97430.51;;;1.74;87.01
37904;BME280;23738;50.422;18.758;2022-12-10T08:23:49;97422.05;;;1.72;86.87
37904;BME280;23738;50.422;18.758;2022-12-10T08:26:18;97429.05;;;1.71;86.93
37904;BME280;23738;50.422;18.758;2022-12-10T08:28:47;97438.98;;;1.68;86.84
37904;BME280;23738;50.422;18.758;2022-12-10T08:31:14;97437.05;;;1.66;86.77
37904;BME280;23738;50.422;18.758;2022-12-10T08:33:42;97441.45;;;1.65;86.69
37904;BME280;23738;50.422;18.758;2022-12-10T08:36:10;97447.11;;;1.69;86.77
37904;BME280;23738;50.422;18.758;2022-12-10T08:38:37;97447.59;;;1.72;86.95
37904;BME280;23738;50.422;18.758;2022-12-10T08:41:07;97445.97;;;1.75;86.99
37904;BME280;23738;50.422;18.758;2022-12-10T08:43:38;97438.97;;;1.72;86.74
37904;BME280;23738;50.422;18.758;2022-12-10T08:46:04;97442.59;;;1.63;86.56
37904;BME280;23738;50.422;18.758;2022-12-10T08:48:31;97448.94;;;1.60;86.68
37904;BME280;23738;50.422;18.758;2022-12-10T08:50:57;97448.45;;;1.65;86.80
37904;BME280;23738;50.422;18.758;2022-12-10T08:53:23;97446.78;;;1.68;86.84
37904;BME280;23738;50.422;18.758;2022-12-10T08:55:51;97449.55;;;1.70;86.83
37904;BME280;23738;50.422;18.758;2022-12-10T08:58:17;97452.19;;;1.66;86.62
37904;BME280;23738;50.422;18.758;2022-12-10T09:00:45;97446.49;;;1.63;86.70
37904;BME280;23738;50.422;18.758;2022-12-10T09:03:11;97447.34;;;1.59;86.73
37904;BME280;23738;50.422;18.758;2022-12-10T09:05:37;97444.90;;;1.58;86.64
37904;BME280;23738;50.422;18.758;2022-12-10T09:08:03;97447.83;;;1.59;86.75
37904;BME280;23738;50.422;18.758;2022-12-10T09:10:29;97450.89;;;1.62;86.90
37904;BME280;23738;50.422;18.758;2022-12-10T09:12:55;97444.38;;;1.66;86.83
37904;BME280;23738;50.422;18.758;2022-12-10T09:15:21;97448.41;;;1.69;87.10
37904;BME280;23738;50.422;18.758;2022-12-10T09:17:47;97443.69;;;1.72;87.09
37904;BME280;23738;50.422;18.758;2022-12-10T09:20:14;97453.30;;;1.72;86.99
37904;BME280;23738;50.422;18.758;2022-12-10T09:22:40;97449.55;;;1.74;87.06
37904;BME280;23738;50.422;18.758;2022-12-10T09:25:07;97439.42;;;1.79;87.06
37904;BME280;23738;50.422;18.758;2022-12-10T09:27:39;97435.35;;;1.81;86.92
37904;BME280;23738;50.422;18.758;2022-12-10T09:30:05;97428.35;;;1.81;86.80
37904;BME280;23738;50.422;18.758;2022-12-10T09:32:32;97423.80;;;1.79;86.97
37904;BME280;23738;50.422;18.758;2022-12-10T09:34:58;97426.41;;;1.79;87.04
37904;BME280;23738;50.422;18.758;2022-12-10T09:37:23;97429.81;;;1.80;87.01
37904;BME280;23738;50.422;18.758;2022-12-10T09:39:49;97428.03;;;1.76;86.94
37904;BME280;23738;50.422;18.758;2022-12-10T09:45:54;97426.52;;;1.86;87.07
37904;BME280;23738;50.422;18.758;2022-12-10T09:48:18;97420.34;;;1.87;86.94
37904;BME280;23738;50.422;18.758;2022-12-10T09:53:37;97405.25;;;1.78;86.88
37904;BME280;23738;50.422;18.758;2022-12-10T09:56:05;97411.10;;;1.80;87.08
37904;BME280;23738;50.422;18.758;2022-12-10T09:58:36;97409.64;;;1.82;87.04
37904;BME280;23738;50.422;18.758;2022-12-10T10:01:04;97410.90;;;1.86;86.99
37904;BME280;23738;50.422;18.758;2022-12-10T10:03:37;97411.22;;;1.87;86.89
37904;BME280;23738;50.422;18.758;2022-12-10T10:06:04;97408.30;;;1.86;86.79
37904;BME280;23738;50.422;18.758;2022-12-10T10:08:40;97404.06;;;1.85;86.97
37904;BME280;23738;50.422;18.758;2022-12-10T10:11:17;97404.88;;;1.85;86.89
37904;BME280;23738;50.422;18.758;2022-12-10T10:14:16;97397.27;;;1.80;86.77
37904;BME280;23738;50.422;18.758;2022-12-10T10:16:59;97395.69;;;1.75;86.80
37904;BME280;23738;50.422;18.758;2022-12-10T10:19:31;97394.34;;;1.79;86.91
37904;BME280;23738;50.422;18.758;2022-12-10T10:22:00;97397.42;;;1.82;86.97
37904;BME280;23738;50.422;18.758;2022-12-10T10:24:33;97401.34;;;1.82;86.89
37904;BME280;23738;50.422;18.758;2022-12-10T10:27:10;97413.86;;;1.83;87.01
37904;BME280;23738;50.422;18.758;2022-12-10T10:29:50;97428.52;;;1.80;86.92
37904;BME280;23738;50.422;18.758;2022-12-10T10:32:19;97435.36;;;1.77;86.83
37904;BME280;23738;50.422;18.758;2022-12-10T10:34:55;97417.48;;;1.74;86.74
37904;BME280;23738;50.422;18.758;2022-12-10T10:37:40;97416.64;;;1.77;87.01
37904;BME280;23738;50.422;18.758;2022-12-10T10:40:43;97378.97;;;1.65;86.90
37904;BME280;23738;50.422;18.758;2022-12-10T10:42:54;97419.56;;;1.82;86.93
37904;BME280;23738;50.422;18.758;2022-12-10T10:48:21;97418.71;;;1.86;87.03
37904;BME280;23738;50.422;18.758;2022-12-10T10:50:54;97429.62;;;1.85;87.07
37904;BME280;23738;50.422;18.758;2022-12-10T10:56:16;97408.13;;;1.91;86.90
37904;BME280;23738;50.422;18.758;2022-12-10T10:59:06;97414.11;;;1.92;86.79
37904;BME280;23738;50.422;18.758;2022-12-10T11:04:13;97413.78;;;1.95;87.02
37904;BME280;23738;50.422;18.758;2022-12-10T11:06:42;97419.48;;;1.95;86.96
37904;BME280;23738;50.422;18.758;2022-12-10T11:09:21;97425.50;;;1.95;86.95
37904;BME280;23738;50.422;18.758;2022-12-10T11:12:20;97423.23;;;1.92;86.82
37904;BME280;23738;50.422;18.758;2022-12-10T11:14:29;97425.66;;;1.93;86.77
37904;BME280;23738;50.422;18.758;2022-12-10T11:22:29;97400.30;;;1.91;86.72
37904;BME280;23738;50.422;18.758;2022-12-10T11:24:58;97414.64;;;1.87;86.68
37904;BME280;23738;50.422;18.758;2022-12-10T11:27:38;97417.41;;;1.86;86.67
37904;BME280;23738;50.422;18.758;2022-12-10T11:30:20;97412.36;;;1.84;86.77
37904;BME280;23738;50.422;18.758;2022-12-10T11:36:00;97396.41;;;1.87;86.78
37904;BME280;23738;50.422;18.758;2022-12-10T11:38:30;97396.84;;;1.95;86.87
37904;BME280;23738;50.422;18.758;2022-12-10T11:46:44;97411.34;;;1.93;86.90
37904;BME280;23738;50.422;18.758;2022-12-10T12:00:20;97407.96;;;1.89;86.50
37904;BME280;23738;50.422;18.758;2022-12-10T12:08:38;97414.20;;;1.76;86.48
37904;BME280;23738;50.422;18.758;2022-12-10T12:14:16;97419.73;;;1.77;86.51
37904;BME280;23738;50.422;18.758;2022-12-10T12:19:51;97426.73;;;1.80;86.66
37904;BME280;23738;50.422;18.758;2022-12-10T12:22:29;97414.84;;;1.78;86.63
37904;BME280;23738;50.422;18.758;2022-12-10T12:25:02;97407.56;;;1.73;86.71
37904;BME280;23738;50.422;18.758;2022-12-10T12:34:03;97402.11;;;1.87;86.81
37904;BME280;23738;50.422;18.758;2022-12-10T12:36:34;97404.05;;;1.89;86.86
37904;BME280;23738;50.422;18.758;2022-12-10T12:39:08;97401.94;;;1.88;86.73
37904;BME280;23738;50.422;18.758;2022-12-10T12:41:59;97394.34;;;1.83;86.63
37904;BME280;23738;50.422;18.758;2022-12-10T12:50:43;97399.84;;;1.84;86.69
37904;BME280;23738;50.422;18.758;2022-12-10T12:53:19;97404.38;;;1.90;86.87
37904;BME280;23738;50.422;18.758;2022-12-10T12:58:47;97400.65;;;1.84;86.59
37904;BME280;23738;50.422;18.758;2022-12-10T13:01:35;97398.91;;;1.77;86.55
37904;BME280;23738;50.422;18.758;2022-12-10T13:04:09;97396.95;;;1.79;86.63
37904;BME280;23738;50.422;18.758;2022-12-10T13:06:38;97398.53;;;1.84;86.78
37904;BME280;23738;50.422;18.758;2022-12-10T13:09:25;97406.98;;;1.90;86.87
37904;BME280;23738;50.422;18.758;2022-12-10T13:12:26;97414.59;;;1.96;86.78
37904;BME280;23738;50.422;18.758;2022-12-10T13:17:34;97415.08;;;1.99;86.89
37904;BME280;23738;50.422;18.758;2022-12-10T13:28:28;97404.88;;;1.89;86.50
37904;BME280;23738;50.422;18.758;2022-12-10T13:45:16;97422.30;;;1.85;86.63
37904;BME280;23738;50.422;18.758;2022-12-10T13:47:47;97425.22;;;1.86;86.54
37904;BME280;23738;50.422;18.758;2022-12-10T13:50:35;97431.08;;;1.84;86.62
37904;BME280;23738;50.422;18.758;2022-12-10T13:56:26;97421.39;;;1.74;86.55
37904;BME280;23738;50.422;18.758;2022-12-10T14:01:56;97438.28;;;1.78;86.45
37904;BME280;23738;50.422;18.758;2022-12-10T14:07:44;97453.42;;;1.78;86.44
37904;BME280;23738;50.422;18.758;2022-12-10T14:10:16;97453.59;;;1.77;86.59
37904;BME280;23738;50.422;18.758;2022-12-10T14:12:45;97448.73;;;1.74;86.53
37904;BME280;23738;50.422;18.758;2022-12-10T14:15:22;97446.46;;;1.71;86.41
37904;BME280;23738;50.422;18.758;2022-12-10T14:18:09;97448.25;;;1.74;86.56
37904;BME280;23738;50.422;18.758;2022-12-10T14:20:35;97454.39;;;1.81;86.67
37904;BME280;23738;50.422;18.758;2022-12-10T14:23:20;97454.19;;;1.87;86.70
37904;BME280;23738;50.422;18.758;2022-12-10T14:25:53;97465.58;;;1.90;86.68
37904;BME280;23738;50.422;18.758;2022-12-10T14:28:20;97463.64;;;1.84;86.40
37904;BME280;23738;50.422;18.758;2022-12-10T14:30:48;97462.05;;;1.79;86.41
37904;BME280;23738;50.422;18.758;2022-12-10T14:33:18;97460.25;;;1.79;86.49
37904;BME280;23738;50.422;18.758;2022-12-10T14:35:50;97456.34;;;1.79;86.31
37904;BME280;23738;50.422;18.758;2022-12-10T14:38:31;97456.34;;;1.79;86.39
37904;BME280;23738;50.422;18.758;2022-12-10T14:41:00;97457.16;;;1.80;86.40
37904;BME280;23738;50.422;18.758;2022-12-10T14:43:35;97459.77;;;1.80;86.45
37904;BME280;23738;50.422;18.758;2022-12-10T14:46:04;97458.79;;;1.81;86.56
37904;BME280;23738;50.422;18.758;2022-12-10T14:48:39;97458.79;;;1.77;86.42
37904;BME280;23738;50.422;18.758;2022-12-10T14:51:16;97460.45;;;1.74;86.41
37904;BME280;23738;50.422;18.758;2022-12-10T14:53:48;97469.20;;;1.77;86.48
37904;BME280;23738;50.422;18.758;2022-12-10T14:56:27;97467.73;;;1.78;86.41
37904;BME280;23738;50.422;18.758;2022-12-10T15:01:36;97471.64;;;1.82;86.39
37904;BME280;23738;50.422;18.758;2022-12-10T15:04:06;97471.00;;;1.76;86.36
37904;BME280;23738;50.422;18.758;2022-12-10T15:06:38;97467.29;;;1.71;86.24
37904;BME280;23738;50.422;18.758;2022-12-10T15:09:05;97468.92;;;1.68;86.20
37904;BME280;23738;50.422;18.758;2022-12-10T15:11:33;97462.11;;;1.67;86.30
37904;BME280;23738;50.422;18.758;2022-12-10T15:14:01;97462.08;;;1.71;86.41
37904;BME280;23738;50.422;18.758;2022-12-10T15:16:42;97464.19;;;1.75;86.49